Etusivu
METAR-TAF:

METAR-TAF

Lentoasemat :

Hurghadan kansainvälinen lentoasema

Hurghada, Egypti

Leveyspiiri: 27-09N, Pituuspiiri: 033-43E, korkeus merenpinnasta: 16 m

Tämänhetkinen sää

Tämä raportti tehtiin 1 tunti ja 27 minuuttia sitten, kello 23.00 UTC
Tuuli 7 kn lännestä
Lämpötila 12°C
Kosteus 35%
Ilmanpaine 1021 hPa
Näkyvyys 10 km tai enemmän
ei pilviä alle 1500 m:ssä eikä cumulonimbus-pilviä

METAR: HEGN 072300Z 28007KT CAVOK 12/M03 Q1021 NOSIG

Aika: 02:27 (00:27 UTC)

Sääennuste

Tämä raportti tehtiin 1 tunti ja 27 minuuttia sitten, kello 23.00 UTC
Ennuste voimassa 08. päivästä klo 00 UTC - 09. päivään klo 06 UTC
Tuuli 13 kn lännestä/luoteesta
Näkyvyys 10 km tai enemmän
ei pilviä alle 1500 m:ssä eikä cumulonimbus-pilviä

TAF: HEGN 072300Z 0800/0906 29013KT CAVOK

Säähavainnot ja -ennusteet yli 4000 lentoasemalta (METAR- ja TAF-raportit).

Käytössä olevat sääasemat on merkitty karttaan keltaisilla ja punaisilla pisteillä.

Aseta hiiri pisteen päälle nähdäksesi sääaseman nimen.

Klikkaa sitten nähdäksesi säähavainnot ja -ennusteet.

Kartan vaihtaminen: klikkaa mustalla rastilla varustettuja vihreitä pisteitä, niin voit zoomata sisään; viivalla varustettua vihreää pistettä, niin voit zoomata ulos tai vihreitä nuolia, niin pääset viereisille kartoille.


METAR-TAF: